Colonia Leopoldina, Brazil
Current Conditions -  °F | °C
As of 1:00 AM on Saturday 25 Oct 2014 (Local Time) from SBMO Reporting Station
Scattered Clouds Scattered Clouds  
Wind Chill: 70°   Ceiling: Unl
Heat Index: 70°   Visibility: 6mi
Dew Point: 70°   Wind: 2mph
Humidity: 100%   Direction: 330°NNW
Pressure: 29.91"   Gusts: NA
Location:  8.91°S, 35.72°W
Report Text: SBMO 250400Z 33002KT 9999 SCT020 21/21 Q1013
Loading
Personal Weather Stations






























Interactive Weather Map
Tropical Storm Tracking
New forecast layout! Learn more

10-Day Weather Forecast

Advertisements
Track Severe Weather on mobile